Bishop, Texas
Current Conditions -  °F | °C
As of 11:56 AM on Saturday 25 Oct 2014 (Local Time) from KNQI Reporting Station
Clear Clear  
Wind Chill: 82°   Ceiling: Unl
Heat Index: 84°   Visibility: 10mi
Dew Point: 65°   Wind: 0mph
Humidity: 56%   Direction: NA
Pressure: 30.17"   Gusts: NA
Location:  27.59°N, 97.8°W
Report Text: KNQI 251656Z AUTO 00000KT 10SM CLR 28/18 A3017 RMK AO2 SLP212 T02780183 $
Loading
Personal Weather Stations






























Interactive Weather Map New forecast layout! Learn more

10-Day Weather Forecast

Advertisements
Track Severe Weather on mobile